createdAt,value
2017-07-30T00:00:14.560Z,23.97
2017-07-30T00:02:49.041Z,23.99
2017-07-30T00:05:22.124Z,23.92
2017-07-30T00:07:56.152Z,23.75
2017-07-30T00:10:29.057Z,24.03
2017-07-30T00:13:01.645Z,24.01
2017-07-30T00:15:34.836Z,23.93
2017-07-30T00:18:07.322Z,24.03
2017-07-30T00:20:39.498Z,23.95
2017-07-30T00:23:12.213Z,23.99
2017-07-30T00:25:53.411Z,23.75
2017-07-30T00:28:25.844Z,24.01
2017-07-30T00:30:59.434Z,23.95
2017-07-30T00:33:32.910Z,23.99
2017-07-30T00:36:05.270Z,23.92
2017-07-30T00:38:38.645Z,23.96
2017-07-30T00:41:10.723Z,23.98
2017-07-30T00:43:43.843Z,23.86
2017-07-30T00:46:16.731Z,24.14
2017-07-30T00:48:52.586Z,24.17
2017-07-30T00:51:24.774Z,24.20
2017-07-30T00:53:58.274Z,24.21
2017-07-30T00:56:30.889Z,24.23
2017-07-30T00:59:03.484Z,24.24
2017-07-30T01:01:36.984Z,24.23
2017-07-30T01:04:10.513Z,24.23
2017-07-30T01:06:43.221Z,24.16
2017-07-30T01:09:18.184Z,24.16
2017-07-30T01:11:56.237Z,23.95
2017-07-30T01:14:29.389Z,24.12
2017-07-30T01:17:03.265Z,23.86
2017-07-30T01:19:37.652Z,23.81
2017-07-30T01:22:12.037Z,23.69
2017-07-30T01:24:45.162Z,24.05
2017-07-30T01:27:17.675Z,24.05
2017-07-30T01:29:52.909Z,24.07
2017-07-30T01:32:25.338Z,24.09
2017-07-30T01:34:58.576Z,24.15
2017-07-30T01:37:30.982Z,24.17
2017-07-30T01:40:03.638Z,24.10
2017-07-30T01:42:37.103Z,24.19
2017-07-30T01:45:09.539Z,23.99
2017-07-30T01:47:42.210Z,24.18
2017-07-30T01:50:14.191Z,24.21
2017-07-30T01:52:50.773Z,24.19
2017-07-30T01:55:23.286Z,24.17
2017-07-30T01:57:56.904Z,23.85
2017-07-30T02:00:29.663Z,24.06
2017-07-30T02:03:03.133Z,24.02
2017-07-30T02:05:35.780Z,23.99
2017-07-30T02:08:09.543Z,23.93
2017-07-30T02:10:42.358Z,23.95
2017-07-30T02:13:14.578Z,23.89
2017-07-30T02:15:49.217Z,23.85
2017-07-30T02:18:22.477Z,23.86
2017-07-30T02:20:56.710Z,23.74
2017-07-30T02:23:29.199Z,23.87
2017-07-30T02:26:03.114Z,23.86
2017-07-30T02:28:35.819Z,23.85
2017-07-30T02:31:08.803Z,23.84
2017-07-30T02:33:41.560Z,23.64
2017-07-30T02:36:14.273Z,23.84
2017-07-30T02:38:47.188Z,23.81
2017-07-30T02:41:23.136Z,23.82
2017-07-30T02:43:57.307Z,23.55
2017-07-30T02:46:30.425Z,23.82
2017-07-30T02:49:03.717Z,23.83
2017-07-30T02:51:37.603Z,23.68
2017-07-30T02:54:10.667Z,23.81
2017-07-30T02:56:43.442Z,23.70
2017-07-30T02:59:16.413Z,23.60
2017-07-30T03:01:53.592Z,23.77
2017-07-30T03:04:26.640Z,23.77
2017-07-30T03:06:59.711Z,23.77
2017-07-30T03:09:32.525Z,23.57
2017-07-30T03:12:06.588Z,23.74
2017-07-30T03:14:39.897Z,23.54
2017-07-30T03:17:13.189Z,23.57
2017-07-30T03:19:45.585Z,23.75
2017-07-30T03:22:18.394Z,23.77
2017-07-30T03:24:54.749Z,23.58
2017-07-30T03:27:28.803Z,23.77
2017-07-30T03:30:00.939Z,23.64
2017-07-30T03:32:37.848Z,23.63
2017-07-30T03:35:11.023Z,23.62
2017-07-30T03:37:44.188Z,23.73
2017-07-30T03:40:16.744Z,23.72
2017-07-30T03:42:50.845Z,23.65
2017-07-30T03:45:26.202Z,23.71
2017-07-30T03:47:59.074Z,23.39
2017-07-30T03:50:32.142Z,23.68
2017-07-30T03:53:04.344Z,23.69
2017-07-30T03:55:37.145Z,23.62
2017-07-30T03:58:10.382Z,23.68
2017-07-30T04:00:43.220Z,23.71
2017-07-30T04:03:15.799Z,23.70
2017-07-30T04:05:47.862Z,23.69
2017-07-30T04:08:23.704Z,23.69
2017-07-30T04:10:56.603Z,23.47
2017-07-30T04:13:30.535Z,23.52
2017-07-30T04:16:04.004Z,23.69
2017-07-30T04:18:36.669Z,23.64
2017-07-30T04:21:09.884Z,23.43
2017-07-30T04:23:41.903Z,23.69
2017-07-30T04:26:14.729Z,23.69
2017-07-30T04:28:47.340Z,23.68
2017-07-30T04:31:23.425Z,23.71
2017-07-30T04:33:59.675Z,23.74
2017-07-30T04:36:31.612Z,23.81
2017-07-30T04:39:03.748Z,23.90
2017-07-30T04:41:35.730Z,23.92
2017-07-30T04:44:10.044Z,23.90
2017-07-30T04:46:44.040Z,23.99
2017-07-30T04:49:17.608Z,23.96
2017-07-30T04:51:50.796Z,23.65
2017-07-30T04:54:28.572Z,23.85
2017-07-30T04:57:01.947Z,23.84
2017-07-30T04:59:34.832Z,23.82
2017-07-30T05:02:07.722Z,23.80
2017-07-30T05:04:41.381Z,23.49
2017-07-30T05:07:15.446Z,23.80
2017-07-30T05:09:48.279Z,23.72
2017-07-30T05:12:23.506Z,23.98
2017-07-30T05:14:58.319Z,23.77
2017-07-30T05:17:31.493Z,23.86
2017-07-30T05:20:04.470Z,23.85
2017-07-30T05:22:37.611Z,23.84
2017-07-30T05:25:11.680Z,23.72
2017-07-30T05:27:43.679Z,23.85
2017-07-30T05:30:16.360Z,23.64
2017-07-30T05:32:49.016Z,23.69
2017-07-30T05:35:25.327Z,23.78
2017-07-30T05:37:58.185Z,23.87
2017-07-30T05:40:31.284Z,23.88
2017-07-30T05:43:04.905Z,23.88
2017-07-30T05:45:37.469Z,23.91
2017-07-30T05:48:10.186Z,23.91
2017-07-30T05:50:42.821Z,23.92
2017-07-30T05:53:14.816Z,23.89
2017-07-30T05:55:47.958Z,23.99
2017-07-30T05:58:24.757Z,23.80
2017-07-30T06:00:57.917Z,23.95
2017-07-30T06:03:31.139Z,23.84
2017-07-30T06:06:03.629Z,23.93
2017-07-30T06:08:36.529Z,24.00
2017-07-30T06:11:10.879Z,24.06
2017-07-30T06:13:43.551Z,24.07
2017-07-30T06:16:16.681Z,23.98
2017-07-30T06:18:49.297Z,24.21
2017-07-30T06:21:25.365Z,24.27
2017-07-30T06:24:03.133Z,24.22
2017-07-30T06:26:43.216Z,24.34
2017-07-30T06:29:17.528Z,24.37
2017-07-30T06:31:50.874Z,24.43
2017-07-30T06:34:29.557Z,24.44
2017-07-30T06:37:05.536Z,24.45
2017-07-30T06:39:39.056Z,24.44
2017-07-30T06:42:12.603Z,24.51
2017-07-30T06:44:53.822Z,24.38
2017-07-30T06:47:34.899Z,24.28
2017-07-30T06:50:10.016Z,24.70
2017-07-30T06:52:43.915Z,24.85
2017-07-30T06:55:16.671Z,24.94
2017-07-30T06:57:49.133Z,24.86
2017-07-30T07:00:37.956Z,24.88
2017-07-30T07:03:11.987Z,25.05
2017-07-30T07:05:52.357Z,24.97
2017-07-30T07:08:32.472Z,24.96
2017-07-30T07:11:12.947Z,24.99
2017-07-30T07:13:46.862Z,25.08
2017-07-30T07:16:24.293Z,25.07
2017-07-30T07:18:58.925Z,25.16
2017-07-30T07:21:32.381Z,24.92
2017-07-30T07:24:05.925Z,25.26
2017-07-30T07:26:38.974Z,25.25
2017-07-30T07:29:11.825Z,25.34
2017-07-30T07:31:44.273Z,25.04
2017-07-30T07:34:17.478Z,25.45
2017-07-30T07:36:51.783Z,25.40
2017-07-30T07:39:28.354Z,25.33
2017-07-30T07:42:02.536Z,25.55
2017-07-30T07:44:37.180Z,25.30
2017-07-30T07:47:10.096Z,25.66
2017-07-30T07:49:43.932Z,25.70
2017-07-30T07:52:18.074Z,25.61
2017-07-30T07:54:50.314Z,25.83
2017-07-30T07:57:27.612Z,25.83
2017-07-30T08:00:00.672Z,25.83
2017-07-30T08:02:33.497Z,25.82
2017-07-30T08:05:08.041Z,25.64
2017-07-30T08:07:40.785Z,25.68
2017-07-30T08:10:12.750Z,26.21
2017-07-30T08:12:46.081Z,26.37
2017-07-30T08:15:18.588Z,26.49
2017-07-30T08:17:50.886Z,26.50
2017-07-30T08:20:26.078Z,26.66
2017-07-30T08:22:58.342Z,26.48
2017-07-30T08:25:32.174Z,26.43
2017-07-30T08:28:06.414Z,26.22
2017-07-30T08:30:38.455Z,26.17
2017-07-30T08:33:10.516Z,26.11
2017-07-30T08:35:42.835Z,26.02
2017-07-30T08:38:14.869Z,26.06
2017-07-30T08:40:47.074Z,26.04
2017-07-30T08:43:19.299Z,25.98
2017-07-30T08:45:54.066Z,25.96
2017-07-30T08:48:28.437Z,25.57
2017-07-30T08:51:01.899Z,25.92
2017-07-30T08:53:36.676Z,25.97
2017-07-30T08:56:14.607Z,25.05
2017-07-30T08:58:54.527Z,25.68
2017-07-30T09:01:33.165Z,25.75
2017-07-30T09:04:08.738Z,25.90
2017-07-30T09:06:43.780Z,25.91
2017-07-30T09:14:49.813Z,25.88
2017-07-30T09:17:24.155Z,25.91
2017-07-30T09:19:56.845Z,25.91
2017-07-30T09:22:29.183Z,25.96
2017-07-30T09:25:11.408Z,25.68
2017-07-30T09:27:47.302Z,25.74
2017-07-30T09:30:24.436Z,25.84
2017-07-30T09:32:56.859Z,25.95
2017-07-30T09:35:29.106Z,26.03
2017-07-30T09:38:01.333Z,26.09
2017-07-30T09:40:33.695Z,26.14
2017-07-30T09:43:06.180Z,26.16
2017-07-30T09:45:38.197Z,26.09
2017-07-30T09:48:10.852Z,25.77
2017-07-30T09:50:43.774Z,26.20
2017-07-30T09:53:16.486Z,26.25
2017-07-30T09:55:48.562Z,26.26
2017-07-30T09:58:21.526Z,26.31
2017-07-30T10:00:53.586Z,26.31
2017-07-30T10:03:25.697Z,26.27
2017-07-30T10:05:57.800Z,26.37
2017-07-30T10:08:29.952Z,26.34
2017-07-30T10:11:02.191Z,26.40
2017-07-30T10:13:34.213Z,26.44
2017-07-30T10:16:06.614Z,26.48
2017-07-30T10:18:39.193Z,26.49
2017-07-30T10:21:11.471Z,26.47
2017-07-30T10:23:44.313Z,26.61
2017-07-30T10:26:16.278Z,26.68
2017-07-30T10:28:58.803Z,26.66
2017-07-30T10:31:31.246Z,26.74
2017-07-30T10:34:03.698Z,26.83
2017-07-30T10:36:41.792Z,26.53
2017-07-30T10:39:17.349Z,26.64
2017-07-30T10:41:54.704Z,26.63
2017-07-30T10:44:34.073Z,26.64
2017-07-30T10:47:08.831Z,26.92
2017-07-30T10:49:42.674Z,26.84
2017-07-30T10:52:14.904Z,27.10
2017-07-30T10:54:47.878Z,27.20
2017-07-30T10:57:25.094Z,27.17
2017-07-30T10:59:59.378Z,27.26
2017-07-30T11:02:38.271Z,27.18
2017-07-30T11:05:31.779Z,27.19
2017-07-30T11:08:10.969Z,27.47
2017-07-30T11:10:43.202Z,27.32
2017-07-30T11:13:15.547Z,27.45
2017-07-30T11:15:48.422Z,27.36
2017-07-30T11:18:23.493Z,27.58
2017-07-30T11:20:56.666Z,27.62
2017-07-30T11:23:29.038Z,27.50
2017-07-30T11:26:01.636Z,27.57
2017-07-30T11:28:33.937Z,27.48
2017-07-30T11:31:06.151Z,27.41
2017-07-30T11:33:38.694Z,27.53
2017-07-30T11:36:10.924Z,27.50
2017-07-30T11:38:45.557Z,27.43
2017-07-30T11:41:18.092Z,27.37
2017-07-30T11:43:51.499Z,27.43
2017-07-30T11:46:26.155Z,27.45
2017-07-30T11:48:58.323Z,27.54
2017-07-30T11:51:30.896Z,27.53
2017-07-30T11:54:03.857Z,27.23
2017-07-30T12:00:39.630Z,27.34
2017-07-30T12:07:15.588Z,27.45
2017-07-30T12:13:33.541Z,27.58
2017-07-30T12:21:26.747Z,27.50
2017-07-30T12:23:59.360Z,27.61
2017-07-30T12:26:31.617Z,27.61
2017-07-30T12:29:05.317Z,27.65
2017-07-30T12:31:37.642Z,27.61
2017-07-30T12:34:09.838Z,27.59
2017-07-30T12:36:49.782Z,27.20
2017-07-30T12:39:24.403Z,27.74
2017-07-30T12:41:56.470Z,27.67
2017-07-30T12:44:29.365Z,27.65
2017-07-30T12:47:01.375Z,27.93
2017-07-30T12:49:33.447Z,27.73
2017-07-30T12:52:05.610Z,27.66
2017-07-30T12:54:37.933Z,27.61
2017-07-30T12:57:10.663Z,27.62
2017-07-30T12:59:42.814Z,27.65
2017-07-30T13:02:14.958Z,27.74
2017-07-30T13:04:47.290Z,27.92
2017-07-30T13:07:19.308Z,27.77
2017-07-30T13:09:53.759Z,27.64
2017-07-30T13:12:28.026Z,27.40
2017-07-30T13:15:00.332Z,27.74
2017-07-30T13:17:32.611Z,27.69
2017-07-30T13:20:05.393Z,27.69
2017-07-30T13:22:37.467Z,27.72
2017-07-30T13:25:10.862Z,27.74
2017-07-30T13:27:43.231Z,27.70
2017-07-30T13:30:15.540Z,27.63
2017-07-30T13:32:47.671Z,27.68
2017-07-30T13:35:22.470Z,27.63
2017-07-30T13:37:54.832Z,27.67
2017-07-30T13:40:28.091Z,27.45
2017-07-30T13:43:00.746Z,27.61
2017-07-30T13:45:33.426Z,27.55
2017-07-30T13:48:06.454Z,27.65
2017-07-30T13:50:38.803Z,27.63
2017-07-30T13:53:11.088Z,27.63
2017-07-30T13:55:45.377Z,27.38
2017-07-30T13:58:23.919Z,27.34
2017-07-30T14:01:07.185Z,27.29
2017-07-30T14:03:40.871Z,27.47
2017-07-30T14:06:13.064Z,27.49
2017-07-30T14:08:45.527Z,27.45
2017-07-30T14:11:17.659Z,27.33
2017-07-30T14:13:50.129Z,27.36
2017-07-30T14:16:25.043Z,27.37
2017-07-30T14:18:57.282Z,27.31
2017-07-30T14:21:29.735Z,27.33
2017-07-30T14:24:01.871Z,27.30
2017-07-30T14:26:34.018Z,27.28
2017-07-30T14:29:06.813Z,27.14
2017-07-30T14:31:39.059Z,27.30
2017-07-30T14:34:11.413Z,27.34
2017-07-30T14:36:44.268Z,27.20
2017-07-30T14:39:16.527Z,27.44
2017-07-30T14:41:49.202Z,27.43
2017-07-30T14:44:24.142Z,27.42
2017-07-30T14:46:56.658Z,27.43
2017-07-30T14:49:29.244Z,27.40
2017-07-30T14:52:01.945Z,27.34
2017-07-30T14:54:34.069Z,27.30
2017-07-30T14:57:06.228Z,27.20
2017-07-30T14:59:39.429Z,27.33
2017-07-30T15:02:12.714Z,27.32
2017-07-30T15:04:45.110Z,27.24
2017-07-30T15:07:17.438Z,27.29
2017-07-30T15:09:49.600Z,27.30
2017-07-30T15:12:23.616Z,27.29
2017-07-30T15:14:56.546Z,27.27
2017-07-30T15:17:28.720Z,27.26
2017-07-30T15:20:01.039Z,27.22
2017-07-30T15:22:33.148Z,27.21
2017-07-30T15:25:05.708Z,27.21
2017-07-30T15:27:37.881Z,27.05
2017-07-30T15:30:10.220Z,27.15
2017-07-30T15:32:43.138Z,27.14
2017-07-30T15:35:15.303Z,27.15
2017-07-30T15:37:49.025Z,27.16
2017-07-30T15:40:23.514Z,27.17
2017-07-30T15:42:55.652Z,27.14
2017-07-30T15:45:28.598Z,26.84
2017-07-30T15:48:01.388Z,27.10
2017-07-30T15:50:33.541Z,27.07
2017-07-30T15:53:06.022Z,27.02
2017-07-30T15:55:38.478Z,27.01
2017-07-30T15:58:11.007Z,26.89
2017-07-30T16:00:43.448Z,26.92
2017-07-30T16:03:15.877Z,26.72
2017-07-30T16:05:48.425Z,26.87
2017-07-30T16:08:22.879Z,26.85
2017-07-30T16:10:55.691Z,26.86
2017-07-30T16:13:28.695Z,26.79
2017-07-30T16:16:01.397Z,26.65
2017-07-30T16:18:34.869Z,26.58
2017-07-30T16:21:08.705Z,26.71
2017-07-30T16:23:41.822Z,26.63
2017-07-30T16:26:14.383Z,26.59
2017-07-30T16:28:46.711Z,26.43
2017-07-30T16:31:21.894Z,26.49
2017-07-30T16:33:54.602Z,26.47
2017-07-30T16:36:28.551Z,26.16
2017-07-30T16:39:01.040Z,26.42
2017-07-30T16:41:33.267Z,26.50
2017-07-30T16:44:06.503Z,26.51
2017-07-30T16:46:39.809Z,26.48
2017-07-30T16:49:15.323Z,26.70
2017-07-30T16:51:47.994Z,26.85
2017-07-30T16:54:23.690Z,26.60
2017-07-30T16:56:56.723Z,26.11
2017-07-30T16:59:30.068Z,26.44
2017-07-30T17:02:02.845Z,26.44
2017-07-30T17:04:36.922Z,26.40
2017-07-30T17:07:09.072Z,26.36
2017-07-30T17:09:43.556Z,26.35
2017-07-30T17:12:18.244Z,26.34
2017-07-30T17:14:52.428Z,26.32
2017-07-30T17:17:28.306Z,26.26
2017-07-30T17:20:00.904Z,26.26
2017-07-30T17:22:33.002Z,26.36
2017-07-30T17:25:05.592Z,26.33
2017-07-30T17:27:38.264Z,26.42
2017-07-30T17:30:11.518Z,26.55
2017-07-30T17:32:44.487Z,26.67
2017-07-30T17:35:16.667Z,26.77
2017-07-30T17:37:49.246Z,26.77
2017-07-30T17:40:24.044Z,26.72
2017-07-30T17:42:56.557Z,26.71
2017-07-30T17:45:29.172Z,26.63
2017-07-30T17:48:01.319Z,26.67
2017-07-30T17:50:34.030Z,26.65
2017-07-30T17:53:06.227Z,26.41
2017-07-30T17:55:39.145Z,26.62
2017-07-30T17:58:12.610Z,26.61
2017-07-30T18:00:45.238Z,26.52
2017-07-30T18:03:19.148Z,26.46
2017-07-30T18:05:56.571Z,26.58
2017-07-30T18:08:28.635Z,26.60
2017-07-30T18:11:00.633Z,26.58
2017-07-30T18:13:32.917Z,26.53
2017-07-30T18:16:05.045Z,26.44
2017-07-30T18:18:37.857Z,26.44
2017-07-30T18:21:09.913Z,26.40
2017-07-30T18:23:42.177Z,26.39
2017-07-30T18:26:15.724Z,26.33
2017-07-30T18:28:47.981Z,26.28
2017-07-30T18:31:25.724Z,26.14
2017-07-30T18:33:59.727Z,26.21
2017-07-30T18:36:32.392Z,26.20
2017-07-30T18:39:05.973Z,26.21
2017-07-30T18:41:38.284Z,26.17
2017-07-30T18:44:11.750Z,26.00
2017-07-30T18:46:44.885Z,26.11
2017-07-30T18:49:16.995Z,26.11
2017-07-30T18:51:49.242Z,26.12
2017-07-30T18:54:25.313Z,26.10
2017-07-30T18:56:57.575Z,25.88
2017-07-30T18:59:30.217Z,25.98
2017-07-30T19:02:07.194Z,25.92
2017-07-30T19:04:47.431Z,25.87
2017-07-30T19:07:32.179Z,25.94
2017-07-30T19:10:05.885Z,25.83
2017-07-30T19:12:39.917Z,25.87
2017-07-30T19:15:12.644Z,25.81
2017-07-30T19:17:53.871Z,25.82
2017-07-30T19:20:27.393Z,25.74
2017-07-30T19:22:59.961Z,25.91
2017-07-30T19:25:33.431Z,25.89
2017-07-30T19:28:13.165Z,25.82
2017-07-30T19:30:47.791Z,25.66
2017-07-30T19:33:23.920Z,25.73
2017-07-30T19:35:58.818Z,25.36
2017-07-30T19:38:31.519Z,25.54
2017-07-30T19:41:05.353Z,25.51
2017-07-30T19:43:39.866Z,25.53
2017-07-30T19:46:15.362Z,25.52
2017-07-30T19:48:48.249Z,25.46
2017-07-30T19:51:20.844Z,25.40
2017-07-30T19:53:53.064Z,25.33
2017-07-30T19:56:26.609Z,25.35
2017-07-30T19:58:59.380Z,25.37
2017-07-30T20:01:31.570Z,25.20
2017-07-30T20:04:03.712Z,25.21
2017-07-30T20:06:36.690Z,25.13
2017-07-30T20:09:08.947Z,25.05
2017-07-30T20:11:41.514Z,25.18
2017-07-30T20:14:13.770Z,25.12
2017-07-30T20:16:47.184Z,25.05
2017-07-30T20:19:19.218Z,25.05
2017-07-30T20:21:51.601Z,25.06
2017-07-30T20:24:23.733Z,24.99
2017-07-30T20:26:58.518Z,24.97
2017-07-30T20:29:30.603Z,24.84
2017-07-30T20:32:03.836Z,24.63
2017-07-30T20:34:36.125Z,24.96
2017-07-30T20:37:08.231Z,24.94
2017-07-30T20:39:40.333Z,24.93
2017-07-30T20:42:13.374Z,24.77
2017-07-30T20:44:45.493Z,24.97
2017-07-30T20:47:18.176Z,25.17
2017-07-30T20:49:50.275Z,25.19
2017-07-30T20:52:25.055Z,25.23
2017-07-30T20:54:57.293Z,25.24
2017-07-30T20:57:30.087Z,25.28
2017-07-30T21:00:02.964Z,25.28
2017-07-30T21:02:35.414Z,25.25
2017-07-30T21:05:07.869Z,25.16
2017-07-30T21:07:40.289Z,25.21
2017-07-30T21:10:12.555Z,25.16
2017-07-30T21:12:45.145Z,25.07
2017-07-30T21:15:17.218Z,25.14
2017-07-30T21:17:49.688Z,25.07
2017-07-30T21:20:24.010Z,25.12
2017-07-30T21:22:56.672Z,24.95
2017-07-30T21:25:28.816Z,25.03
2017-07-30T21:28:01.583Z,24.99
2017-07-30T21:30:35.119Z,24.99
2017-07-30T21:33:08.118Z,24.97
2017-07-30T21:35:40.372Z,24.98
2017-07-30T21:38:12.642Z,24.97
2017-07-30T21:40:45.044Z,24.96
2017-07-30T21:43:17.238Z,24.91
2017-07-30T21:45:50.142Z,24.91
2017-07-30T21:48:24.448Z,25.00
2017-07-30T21:50:56.439Z,24.98
2017-07-30T21:53:29.728Z,24.77
2017-07-30T21:56:02.629Z,24.95
2017-07-30T21:58:35.123Z,24.99
2017-07-30T22:01:07.790Z,24.73
2017-07-30T22:03:41.472Z,24.93
2017-07-30T22:06:13.629Z,24.84
2017-07-30T22:08:47.460Z,24.97
2017-07-30T22:11:23.064Z,24.97
2017-07-30T22:13:55.717Z,24.97
2017-07-30T22:16:29.964Z,24.91
2017-07-30T22:19:03.084Z,24.94
2017-07-30T22:21:35.590Z,24.96
2017-07-30T22:24:08.208Z,24.90
2017-07-30T22:26:40.529Z,24.92
2017-07-30T22:29:12.594Z,24.92
2017-07-30T22:31:44.972Z,24.90
2017-07-30T22:34:18.492Z,24.88
2017-07-30T22:36:53.658Z,24.92
2017-07-30T22:39:34.635Z,24.63
2017-07-30T22:42:07.762Z,24.68
2017-07-30T22:44:40.889Z,24.83
2017-07-30T22:47:16.745Z,24.84
2017-07-30T22:49:51.726Z,24.54
2017-07-30T22:52:28.871Z,24.75
2017-07-30T22:55:01.177Z,24.73
2017-07-30T22:57:33.856Z,24.72
2017-07-30T23:00:07.134Z,24.73
2017-07-30T23:02:40.027Z,24.64
2017-07-30T23:05:12.398Z,24.72
2017-07-30T23:07:45.453Z,24.70
2017-07-30T23:10:23.705Z,24.63
2017-07-30T23:12:55.990Z,24.57
2017-07-30T23:15:28.182Z,24.52
2017-07-30T23:18:00.922Z,24.66
2017-07-30T23:20:33.144Z,24.59
2017-07-30T23:23:05.522Z,24.64
2017-07-30T23:25:38.804Z,24.64
2017-07-30T23:28:10.763Z,24.63
2017-07-30T23:30:42.761Z,24.61
2017-07-30T23:33:15.331Z,24.52
2017-07-30T23:35:47.656Z,24.60
2017-07-30T23:38:23.891Z,24.58
2017-07-30T23:40:56.294Z,24.49
2017-07-30T23:43:28.744Z,24.42
2017-07-30T23:46:00.660Z,24.48
2017-07-30T23:48:32.690Z,24.51
2017-07-30T23:51:04.741Z,24.51
2017-07-30T23:53:36.695Z,24.54
2017-07-30T23:56:09.367Z,24.46
2017-07-30T23:58:42.570Z,24.56
